Time;durP1;ratioP1;P1;durP2;ratioP2;P2;SDS_P1;SDS_P2;PMS_P1;PMS_P2;Temp;Humidity;BMP_temperature;BMP_pressure;BME280_temperature;BME280_humidity;BME280_pressure;Samples;Min_cycle;Max_cycle;Signal;HPM_P1;HPM_P2
2022/06/28 00:04:07;;;;;;;16.50;5.60;;;27.20;61.30;;;;;;226905;1267;25342;-51
2022/06/28 00:09:14;;;;;;;11.20;4.80;;;27.20;61.30;;;;;;220203;1268;22704;-52
2022/06/28 00:19:38;;;;;;;12.50;4.60;;;27.30;61.70;;;;;;228387;1267;23122;-48
2022/06/28 00:24:40;;;;;;;13.50;4.90;;;27.40;61.50;;;;;;228155;1268;22181;-51
2022/06/28 00:29:42;;;;;;;14.10;4.80;;;27.40;61.50;;;;;;228192;1268;22414;-51
2022/06/28 00:34:46;;;;;;;8.80;4.30;;;27.40;61.50;;;;;;228202;1270;22459;-51
2022/06/28 00:39:49;;;;;;;7.00;4.20;;;27.40;61.50;;;;;;222467;1268;22566;-52
2022/06/28 00:44:51;;;;;;;6.90;4.10;;;27.40;61.50;;;;;;220429;1268;22683;-48
2022/06/28 00:49:58;;;;;;;9.30;4.30;;;27.40;61.70;;;;;;220407;1268;23053;-50
2022/06/28 00:55:06;;;;;;;8.00;4.20;;;27.40;61.80;;;;;;220048;1269;25125;-52
2022/06/28 01:00:11;;;;;;;;;;;27.40;61.90;;;;;;220458;1268;22860;-48
2022/06/28 01:05:23;;;;;;;8.80;4.10;;;27.40;62.10;;;;;;220433;1268;24211;-51
2022/06/28 01:10:26;;;;;;;9.90;4.20;;;27.30;62.00;;;;;;220443;1267;25923;-49
2022/06/28 01:15:30;;;;;;;8.50;4.50;;;27.40;61.90;;;;;;220191;1268;24211;-47
2022/06/28 01:20:40;;;;;;;8.10;4.30;;;27.40;62.30;;;;;;221871;1268;374177;-50
2022/06/28 01:25:51;;;;;;;7.50;4.20;;;27.40;62.00;;;;;;220051;1268;24178;-48
2022/06/28 01:31:00;;;;;;;8.30;4.80;;;27.40;62.20;;;;;;221489;1265;22561;-49
2022/06/28 01:36:08;;;;;;;8.10;4.20;;;27.40;62.20;;;;;;220047;1268;25429;-51
2022/06/28 01:41:32;;;;;;;7.00;3.80;;;27.40;61.80;;;;;;219950;1268;25427;-49
2022/06/28 01:47:06;;;;;;;7.30;3.90;;;27.40;62.10;;;;;;220583;1268;22544;-50
2022/06/28 01:52:27;;;;;;;8.20;4.00;;;27.50;62.20;;;;;;220568;1268;22539;-52
2022/06/28 01:57:32;;;;;;;8.00;4.30;;;27.40;62.20;;;;;;220632;1268;22791;-50
2022/06/28 02:02:38;;;;;;;10.70;4.40;;;27.50;62.30;;;;;;220313;1268;22557;-51
2022/06/28 02:08:04;;;;;;;9.50;4.10;;;27.50;62.40;;;;;;220419;1268;24186;-50
2022/06/28 02:13:19;;;;;;;8.40;4.60;;;27.50;62.20;;;;;;220310;1268;24771;-49
2022/06/28 02:18:22;;;;;;;7.50;3.50;;;27.50;62.40;;;;;;220343;1269;22553;-51
2022/06/28 02:23:25;;;;;;;6.90;3.70;;;27.50;62.30;;;;;;220154;1268;22549;-51
2022/06/28 02:28:31;;;;;;;7.70;3.90;;;27.50;62.40;;;;;;220015;1268;24258;-51
2022/06/28 02:33:33;;;;;;;6.80;3.40;;;27.50;62.70;;;;;;223401;1268;22600;-52
2022/06/28 02:43:56;;;;;;;7.40;4.40;;;27.50;62.50;;;;;;220122;1268;22699;-49
2022/06/28 02:48:59;;;;;;;7.20;3.80;;;27.50;62.20;;;;;;220485;1268;23948;-52
2022/06/28 02:54:01;;;;;;;8.70;4.30;;;27.50;62.50;;;;;;220560;1268;26181;-50
2022/06/28 02:59:03;;;;;;;7.00;3.90;;;27.50;62.50;;;;;;220508;1268;24269;-48
2022/06/28 03:04:06;;;;;;;5.50;3.60;;;27.60;62.20;;;;;;220606;1268;24215;-50
2022/06/28 03:09:10;;;;;;;6.90;3.70;;;27.60;62.40;;;;;;220578;1268;25259;-53
2022/06/28 03:14:12;;;;;;;6.50;3.60;;;27.60;62.40;;;;;;220561;1268;23906;-52
2022/06/28 03:19:15;;;;;;;7.50;3.60;;;27.60;61.80;;;;;;220349;1268;24276;-48
2022/06/28 03:24:17;;;;;;;6.60;3.60;;;27.60;62.40;;;;;;220171;1267;24282;-51
2022/06/28 03:29:20;;;;;;;8.40;4.00;;;27.60;62.40;;;;;;220846;1268;23537;-49
2022/06/28 03:34:23;;;;;;;5.50;3.50;;;27.50;62.30;;;;;;220497;1268;25470;-49
2022/06/28 03:39:26;;;;;;;7.50;3.60;;;27.60;63.20;;;;;;220658;1268;25975;-51
2022/06/28 03:44:29;;;;;;;6.20;3.30;;;27.60;62.70;;;;;;220898;1268;24437;-49
2022/06/28 03:49:33;;;;;;;5.50;3.40;;;27.60;62.30;;;;;;220667;1268;22636;-54
2022/06/28 03:54:46;;;;;;;6.00;3.60;;;27.60;62.40;;;;;;220461;1268;22539;-50
2022/06/28 03:59:59;;;;;;;7.10;3.10;;;27.60;62.40;;;;;;220463;1268;24813;-48
2022/06/28 04:05:02;;;;;;;7.70;4.00;;;27.60;62.40;;;;;;220452;1268;24231;-51
2022/06/28 04:10:05;;;;;;;6.10;3.70;;;27.60;62.30;;;;;;220131;1268;25589;-49
2022/06/28 04:15:09;;;;;;;4.70;3.30;;;27.60;62.40;;;;;;223181;1268;22699;-49
2022/06/28 04:20:12;;;;;;;7.80;3.70;;;27.60;62.40;;;;;;228158;1266;22393;-52
2022/06/28 04:25:26;;;;;;;5.00;3.10;;;27.70;62.30;;;;;;226209;1268;22534;-53
2022/06/28 04:30:31;;;;;;;6.50;3.60;;;27.70;62.10;;;;;;224521;1268;24341;-48
2022/06/28 04:35:36;;;;;;;5.10;3.60;;;27.70;62.00;;;;;;220043;1268;22586;-53
2022/06/28 04:40:40;;;;;;;6.30;3.40;;;27.70;62.10;;;;;;220807;1268;22563;-49
2022/06/28 04:45:59;;;;;;;5.80;3.20;;;27.70;62.40;;;;;;220401;1265;22592;-48
2022/06/28 04:51:11;;;;;;;5.90;3.40;;;27.70;62.20;;;;;;220687;1268;24065;-48
2022/06/28 04:56:18;;;;;;;6.10;3.40;;;27.70;62.40;;;;;;220307;1268;22574;-51
2022/06/28 05:01:24;;;;;;;5.60;3.20;;;27.70;62.50;;;;;;220325;1268;22534;-49
2022/06/28 05:06:27;;;;;;;5.50;3.40;;;27.60;62.30;;;;;;220893;1268;26463;-52
2022/06/28 05:11:30;;;;;;;5.30;3.60;;;27.60;62.40;;;;;;220675;1268;22694;-47
2022/06/28 05:16:52;;;;;;;4.40;3.00;;;27.60;62.20;;;;;;220605;1268;24137;-49
2022/06/28 05:21:57;;;;;;;4.80;3.40;;;27.60;62.30;;;;;;221021;1268;22536;-52
2022/06/28 05:27:00;;;;;;;4.00;3.10;;;27.70;62.50;;;;;;220301;1268;22549;-51
2022/06/28 05:32:12;;;;;;;7.00;3.10;;;27.70;62.40;;;;;;220690;1265;22538;-52
2022/06/28 05:37:15;;;;;;;6.10;4.00;;;27.70;62.30;;;;;;220421;1268;25480;-49
2022/06/28 05:42:17;;;;;;;5.90;5.20;;;27.70;62.20;;;;;;220996;1266;22557;-51
2022/06/28 05:47:20;;;;;;;7.80;5.80;;;27.50;64.10;;;;;;220667;1268;24193;-50
2022/06/28 05:52:22;;;;;;;8.30;6.60;;;27.30;65.10;;;;;;220898;1268;24295;-51
2022/06/28 05:57:24;;;;;;;7.80;6.40;;;27.00;66.10;;;;;;220564;1265;24218;-49
2022/06/28 06:02:27;;;;;;;8.00;6.70;;;26.80;67.10;;;;;;220274;1268;22561;-47
2022/06/28 06:07:31;;;;;;;9.00;6.50;;;26.70;67.30;;;;;;220697;1268;25235;-51
2022/06/28 06:12:35;;;;;;;7.30;6.40;;;26.50;67.80;;;;;;220475;1268;22538;-50
2022/06/28 06:17:40;;;;;;;10.80;6.30;;;26.40;67.80;;;;;;220413;1268;25245;-53
2022/06/28 06:22:47;;;;;;;10.00;6.10;;;26.40;67.80;;;;;;220801;1268;24273;-48
2022/06/28 06:28:08;;;;;;;18.80;7.70;;;26.50;67.50;;;;;;220639;1268;24224;-52
2022/06/28 06:33:10;;;;;;;9.40;6.20;;;26.60;67.00;;;;;;220701;1268;24252;-48
2022/06/28 06:38:32;;;;;;;10.30;6.30;;;26.50;67.20;;;;;;220427;1268;22557;-50
2022/06/28 06:43:34;;;;;;;8.50;6.30;;;26.60;67.30;;;;;;220785;1268;25674;-50
2022/06/28 06:48:58;;;;;;;8.50;6.30;;;26.50;66.50;;;;;;220285;1268;25246;-48
2022/06/28 06:54:05;;;;;;;7.70;5.60;;;26.40;66.70;;;;;;220544;1268;22558;-54
2022/06/28 06:59:11;;;;;;;7.10;6.10;;;26.30;67.10;;;;;;220784;1268;25328;-54
2022/06/28 07:04:17;;;;;;;6.40;5.80;;;26.30;67.00;;;;;;220604;1268;22569;-50
2022/06/28 07:09:20;;;;;;;7.30;5.50;;;26.00;67.00;;;;;;220512;1268;22641;-49
2022/06/28 07:14:23;;;;;;;11.80;6.60;;;26.00;67.60;;;;;;220350;1268;22696;-47
2022/06/28 07:19:26;;;;;;;8.30;5.90;;;26.20;66.50;;;;;;220566;1268;22576;-52
2022/06/28 07:24:30;;;;;;;8.60;6.30;;;26.10;67.30;;;;;;220254;1268;24368;-50
2022/06/28 07:29:33;;;;;;;9.40;6.00;;;26.20;67.20;;;;;;220250;1268;22588;-50
2022/06/28 07:34:35;;;;;;;5.40;4.60;;;26.30;66.70;;;;;;220527;1268;25235;-53
2022/06/28 07:39:38;;;;;;;5.00;4.50;;;26.40;66.10;;;;;;220390;1268;23057;-48
2022/06/28 07:44:58;;;;;;;4.90;4.30;;;26.40;65.40;;;;;;220516;1268;25254;-51
2022/06/28 07:55:22;;;;;;;4.40;3.70;;;26.50;65.40;;;;;;220444;1268;22704;-52
2022/06/28 08:00:36;;;;;;;5.30;3.90;;;26.60;64.70;;;;;;220535;1268;22766;-52
2022/06/28 08:05:45;;;;;;;5.30;4.00;;;26.50;64.60;;;;;;220655;1268;23988;-50
2022/06/28 08:10:48;;;;;;;5.80;4.00;;;26.50;64.30;;;;;;220849;1268;22668;-51
2022/06/28 08:15:51;;;;;;;6.20;3.60;;;26.60;63.90;;;;;;220717;1268;22710;-51
2022/06/28 08:20:55;;;;;;;4.60;3.30;;;26.60;63.50;;;;;;220866;1268;24300;-49
2022/06/28 08:25:57;;;;;;;7.80;3.70;;;26.60;63.40;;;;;;220522;1267;22566;-49
2022/06/28 08:31:00;;;;;;;5.40;3.40;;;26.60;63.40;;;;;;220506;1268;22565;-51
2022/06/28 08:36:02;;;;;;;4.40;3.20;;;26.60;63.10;;;;;;220831;1268;24327;-47
2022/06/28 08:41:07;;;;;;;4.70;3.30;;;26.70;63.60;;;;;;220551;1268;22565;-52
2022/06/28 08:46:11;;;;;;;6.60;3.30;;;26.70;66.40;;;;;;220903;1268;22558;-50
2022/06/28 08:51:15;;;;;;;5.60;3.50;;;26.60;66.90;;;;;;220791;1268;22547;-54
2022/06/28 08:56:17;;;;;;;3.70;3.30;;;26.70;67.30;;;;;;220889;1268;25098;-53
2022/06/28 09:01:20;;;;;;;6.60;3.30;;;26.60;67.60;;;;;;220362;1268;22546;-48
2022/06/28 09:06:23;;;;;;;5.60;3.30;;;26.60;67.60;;;;;;220752;1268;24330;-47
2022/06/28 09:11:39;;;;;;;3.80;3.20;;;26.60;67.80;;;;;;220359;1267;24231;-51
2022/06/28 09:16:41;;;;;;;5.30;3.20;;;26.60;68.20;;;;;;221065;1268;22698;-50
2022/06/28 09:21:46;;;;;;;5.20;4.20;;;26.50;68.30;;;;;;220822;1268;22560;-49
2022/06/28 09:27:06;;;;;;;4.40;4.00;;;26.60;68.20;;;;;;220674;1268;22623;-49
2022/06/28 09:32:32;;;;;;;5.10;4.20;;;26.50;68.50;;;;;;220488;1268;25370;-50
2022/06/28 09:38:00;;;;;;;5.00;4.50;;;26.60;68.50;;;;;;220487;1268;22637;-49
2022/06/28 09:43:12;;;;;;;6.70;4.40;;;26.60;68.80;;;;;;220295;1268;22622;-52
2022/06/28 09:48:19;;;;;;;6.10;4.20;;;26.50;67.80;;;;;;220764;1265;22623;-50
2022/06/28 09:53:27;;;;;;;6.30;4.50;;;26.60;68.60;;;;;;220908;1268;24272;-51
2022/06/28 09:58:36;;;;;;;5.40;4.10;;;26.60;69.50;;;;;;220255;1267;22562;-52
2022/06/28 10:03:43;;;;;;;4.80;4.10;;;26.70;69.30;;;;;;221101;1268;22546;-49
2022/06/28 10:08:50;;;;;;;4.30;3.90;;;26.60;69.40;;;;;;220364;1267;22551;-51
2022/06/28 10:19:19;;;;;;;5.50;4.20;;;26.60;68.90;;;;;;220466;1268;22615;-50
2022/06/28 10:24:22;;;;;;;4.40;3.90;;;26.70;68.50;;;;;;220549;1268;24217;-51
2022/06/28 10:30:00;;;;;;;6.10;4.10;;;26.70;68.70;;;;;;220650;1268;24279;-52
2022/06/28 10:35:06;;;;;;;4.50;3.80;;;26.70;68.60;;;;;;220980;1268;25447;-49
2022/06/28 10:40:22;;;;;;;5.70;3.80;;;26.80;68.20;;;;;;220891;1267;22561;-52
2022/06/28 10:46:02;;;;;;;3.80;3.30;;;26.70;67.40;;;;;;220515;1267;25414;-51
2022/06/28 10:51:05;;;;;;;4.40;3.40;;;26.70;67.70;;;;;;221038;1268;24308;-49
2022/06/28 10:56:12;;;;;;;5.80;3.80;;;26.70;66.90;;;;;;220963;1267;23049;-51
2022/06/28 11:01:39;;;;;;;4.30;3.50;;;26.70;66.40;;;;;;220497;1267;22537;-50
2022/06/28 11:06:45;;;;;;;5.60;3.90;;;26.80;65.80;;;;;;220497;1268;22725;-53
2022/06/28 11:12:16;;;;;;;5.20;3.80;;;26.80;65.50;;;;;;220559;1268;22607;-50
2022/06/28 11:17:27;;;;;;;4.30;3.70;;;26.80;64.20;;;;;;220551;1267;25252;-48
2022/06/28 11:22:34;;;;;;;;;;;26.80;65.20;;;;;;220862;1267;24217;-50
2022/06/28 11:27:44;;;;;;;5.80;3.90;;;26.90;64.60;;;;;;220716;1265;24369;-53
2022/06/28 11:32:50;;;;;;;4.50;4.10;;;26.90;65.70;;;;;;220845;1268;22550;-49
2022/06/28 11:38:05;;;;;;;4.80;4.40;;;26.90;65.70;;;;;;220859;1268;25313;-52
2022/06/28 11:43:09;;;;;;;4.20;3.60;;;27.00;63.40;;;;;;220921;1268;22548;-50
2022/06/28 11:48:13;;;;;;;4.40;3.80;;;27.00;64.30;;;;;;220843;1268;22653;-48
2022/06/28 11:53:18;;;;;;;5.30;4.40;;;27.00;63.50;;;;;;220782;1268;24334;-48
2022/06/28 11:58:25;;;;;;;5.90;4.10;;;27.00;62.60;;;;;;220764;1265;22695;-52
2022/06/28 12:03:32;;;;;;;4.20;3.80;;;27.00;62.60;;;;;;220999;1268;24713;-48
2022/06/28 12:08:52;;;;;;;4.90;3.50;;;26.60;58.80;;;;;;220611;1265;22549;-49
2022/06/28 12:14:17;;;;;;;4.70;3.80;;;26.10;56.50;;;;;;220889;1268;23050;-46
2022/06/28 12:19:25;;;;;;;4.60;3.60;;;26.00;60.00;;;;;;220656;1268;23000;-49
2022/06/28 12:24:37;;;;;;;4.50;3.70;;;25.90;56.50;;;;;;220460;1268;24208;-50
2022/06/28 12:29:40;;;;;;;3.80;3.30;;;26.10;57.80;;;;;;220690;1265;24215;-49
2022/06/28 12:34:43;;;;;;;4.60;3.40;;;26.20;58.90;;;;;;220610;1268;25356;-48
2022/06/28 12:39:49;;;;;;;6.50;3.60;;;26.00;60.50;;;;;;220827;1268;25378;-52
2022/06/28 12:45:00;;;;;;;6.30;3.50;;;25.90;60.00;;;;;;220313;1268;22535;-49
2022/06/28 12:50:08;;;;;;;3.70;3.30;;;25.80;58.70;;;;;;220936;1267;25292;-51
2022/06/28 12:55:17;;;;;;;3.80;3.40;;;25.90;58.30;;;;;;220777;1268;22657;-49
2022/06/28 13:00:20;;;;;;;6.00;3.60;;;26.00;58.90;;;;;;220808;1267;22544;-50
2022/06/28 13:05:26;;;;;;;4.50;3.30;;;25.90;60.80;;;;;;220736;1268;22531;-50
2022/06/28 13:10:29;;;;;;;4.20;3.40;;;25.80;61.10;;;;;;220776;1268;22534;-52
2022/06/28 13:15:42;;;;;;;6.10;3.80;;;25.70;61.10;;;;;;220724;1268;24489;-50
2022/06/28 13:20:47;;;;;;;3.90;3.50;;;25.60;60.20;;;;;;220905;1268;245408;-47
2022/06/28 13:25:49;;;;;;;3.70;3.30;;;25.50;57.40;;;;;;220840;1268;22740;-50
2022/06/28 13:30:51;;;;;;;4.00;3.40;;;25.70;58.00;;;;;;221048;1268;22541;-51
2022/06/28 13:35:57;;;;;;;4.90;4.00;;;25.70;59.90;;;;;;220815;1268;22550;-48
2022/06/28 13:41:01;;;;;;;3.80;3.40;;;25.60;61.70;;;;;;221097;1268;22550;-49
2022/06/28 13:46:06;;;;;;;4.30;3.70;;;25.40;61.70;;;;;;220964;1268;25369;-48
2022/06/28 13:51:11;;;;;;;5.10;3.70;;;25.30;61.50;;;;;;220666;1267;25332;-51
2022/06/28 13:56:14;;;;;;;7.60;4.60;;;25.70;61.10;;;;;;220917;1268;22704;-56
2022/06/28 14:01:19;;;;;;;4.70;4.10;;;26.00;60.50;;;;;;220556;1268;24220;-50
2022/06/28 14:06:22;;;;;;;4.70;4.30;;;26.10;60.10;;;;;;220657;1268;25308;-50
2022/06/28 14:11:25;;;;;;;6.50;3.60;;;26.30;59.90;;;;;;220626;1268;22687;-52
2022/06/28 14:16:28;;;;;;;4.70;4.00;;;26.40;59.80;;;;;;220645;1265;25362;-52
2022/06/28 14:21:31;;;;;;;6.00;3.90;;;26.40;60.10;;;;;;220605;1268;25420;-51
2022/06/28 14:26:34;;;;;;;4.80;4.30;;;26.40;60.00;;;;;;220664;1268;22578;-53
2022/06/28 14:31:37;;;;;;;5.80;4.00;;;26.50;59.70;;;;;;220863;1268;22527;-48
2022/06/28 14:36:49;;;;;;;5.30;4.20;;;26.50;59.70;;;;;;220711;1267;22541;-52
2022/06/28 14:42:01;;;;;;;4.90;4.40;;;26.60;59.60;;;;;;220950;1268;24418;-50
2022/06/28 14:47:06;;;;;;;5.00;4.50;;;26.60;59.50;;;;;;220312;1267;22541;-52
2022/06/28 14:52:12;;;;;;;4.30;3.90;;;26.60;59.40;;;;;;220914;1268;22697;-50
2022/06/28 14:57:17;;;;;;;5.60;4.10;;;26.60;59.30;;;;;;221081;1268;22681;-52
2022/06/28 15:02:19;;;;;;;4.90;4.40;;;26.60;59.00;;;;;;220876;1268;24201;-52
2022/06/28 15:07:25;;;;;;;5.20;4.00;;;26.70;59.00;;;;;;220920;1267;23209;-55
2022/06/28 15:12:43;;;;;;;4.50;4.10;;;26.70;58.90;;;;;;221064;1268;24533;-49
2022/06/28 15:17:52;;;;;;;7.90;4.60;;;26.70;58.70;;;;;;220933;1268;22734;-52
2022/06/28 15:33:52;;;;;;;11.80;3.90;;;26.80;58.10;;;;;;220405;1267;25240;-52
2022/06/28 15:38:59;;;;;;;10.50;4.30;;;26.80;58.10;;;;;;220974;1268;26501;-54
2022/06/28 15:44:04;;;;;;;8.10;4.40;;;26.90;58.00;;;;;;220469;1265;24424;-49
2022/06/28 15:49:10;;;;;;;8.30;3.80;;;26.90;57.80;;;;;;220296;1268;23952;-50
2022/06/28 15:54:21;;;;;;;4.80;3.80;;;26.90;58.30;;;;;;220233;1267;24391;-49
2022/06/28 15:59:32;;;;;;;7.60;4.10;;;26.90;59.30;;;;;;228212;1269;22167;-50
2022/06/28 16:04:37;;;;;;;9.20;4.40;;;27.00;60.60;;;;;;227914;1266;22392;-51
2022/06/28 16:09:46;;;;;;;5.80;4.10;;;27.00;61.20;;;;;;227992;1270;22431;-51
2022/06/28 16:14:57;;;;;;;7.70;4.30;;;27.10;59.70;;;;;;228209;1266;22717;-52
2022/06/28 16:20:11;;;;;;;12.70;4.00;;;27.20;59.30;;;;;;228141;1266;22433;-50
2022/06/28 16:25:28;;;;;;;8.70;4.40;;;27.20;60.80;;;;;;227995;1267;22364;-51
2022/06/28 16:30:35;;;;;;;13.10;6.70;;;27.20;59.80;;;;;;224119;1266;22541;-53
2022/06/28 16:35:47;;;;;;;10.70;5.70;;;27.30;60.50;;;;;;220541;1268;22555;-50
2022/06/28 16:40:50;;;;;;;11.10;5.10;;;27.30;60.60;;;;;;220466;1270;24354;-52
2022/06/28 16:46:02;;;;;;;8.40;5.00;;;27.30;60.30;;;;;;220580;1268;22771;-51
2022/06/28 16:51:08;;;;;;;6.50;4.30;;;27.30;60.00;;;;;;220391;1268;22601;-52
2022/06/28 16:56:14;;;;;;;9.10;4.50;;;27.30;59.30;;;;;;220518;1268;24312;-51
2022/06/28 17:01:19;;;;;;;6.10;4.30;;;27.20;59.10;;;;;;220271;1267;22535;-48
2022/06/28 17:12:00;;;;;;;8.40;4.10;;;27.20;58.50;;;;;;220719;1268;25207;-51
2022/06/28 17:17:05;;;;;;;6.30;3.80;;;27.20;59.70;;;;;;220475;1268;22547;-53
2022/06/28 17:22:14;;;;;;;7.10;4.50;;;27.30;59.10;;;;;;220585;1268;26127;-50
2022/06/28 17:27:18;;;;;;;7.30;3.80;;;27.20;59.10;;;;;;220530;1268;23021;-52
2022/06/28 17:32:25;;;;;;;6.30;3.60;;;27.20;58.40;;;;;;220640;1268;25557;-52
2022/06/28 17:37:31;;;;;;;4.00;3.40;;;26.90;57.30;;;;;;221793;1266;22672;-50
2022/06/28 17:42:38;;;;;;;5.00;3.60;;;26.70;57.40;;;;;;221047;1268;26512;-50
2022/06/28 17:47:44;;;;;;;5.90;3.50;;;26.60;57.40;;;;;;220263;1268;22596;-53
2022/06/28 17:52:51;;;;;;;6.80;4.50;;;26.60;57.30;;;;;;220474;1267;22810;-49
2022/06/28 17:57:54;;;;;;;5.30;4.00;;;26.70;57.30;;;;;;220750;1268;25250;-50
2022/06/28 18:02:59;;;;;;;13.00;4.30;;;26.80;57.30;;;;;;220586;1268;24299;-55
2022/06/28 18:08:02;;;;;;;11.90;3.80;;;26.80;57.60;;;;;;220642;1268;22658;-53
2022/06/28 18:13:06;;;;;;;11.50;4.50;;;26.90;57.80;;;;;;220707;1268;24419;-51
2022/06/28 18:18:09;;;;;;;11.80;4.80;;;26.90;57.90;;;;;;220593;1269;22688;-50
2022/06/28 18:23:16;;;;;;;5.10;4.10;;;26.90;57.80;;;;;;220750;1268;24393;-50
2022/06/28 18:28:24;;;;;;;9.20;4.50;;;26.90;57.90;;;;;;220407;1268;24769;-51
2022/06/28 18:33:28;;;;;;;5.90;4.70;;;26.90;57.80;;;;;;220870;1270;24667;-53
2022/06/28 18:38:30;;;;;;;12.00;4.30;;;26.90;58.00;;;;;;220171;1268;22549;-50
2022/06/28 18:43:33;;;;;;;12.20;5.10;;;26.90;58.10;;;;;;220402;1268;25416;-52
2022/06/28 18:48:57;;;;;;;10.30;5.30;;;26.90;58.50;;;;;;220278;1268;24945;-50
2022/06/28 18:54:27;;;;;;;7.30;4.90;;;26.90;57.80;;;;;;220767;1268;24432;-54
2022/06/28 18:59:33;;;;;;;5.80;4.70;;;26.70;58.10;;;;;;220494;1270;26157;-55
2022/06/28 19:04:43;;;;;;;5.80;4.90;;;26.60;58.00;;;;;;220574;1268;25358;-48
2022/06/28 19:09:52;;;;;;;6.40;4.60;;;26.50;57.60;;;;;;220984;1268;24267;-52
2022/06/28 19:15:16;;;;;;;8.30;4.80;;;26.60;58.20;;;;;;220309;1270;23911;-48
2022/06/28 19:20:25;;;;;;;7.60;5.00;;;26.50;58.10;;;;;;220329;1269;24983;-48
2022/06/28 19:25:40;;;;;;;10.30;4.90;;;26.50;57.90;;;;;;220502;1268;25489;-50
2022/06/28 19:30:46;;;;;;;6.40;5.10;;;26.40;58.20;;;;;;220474;1268;25481;-48
2022/06/28 19:35:54;;;;;;;5.70;5.10;;;26.40;58.60;;;;;;220676;1268;26246;-50
2022/06/28 19:41:03;;;;;;;7.20;4.70;;;26.40;58.30;;;;;;220656;1268;25247;-53
2022/06/28 19:46:08;;;;;;;7.10;4.70;;;26.40;58.50;;;;;;220791;1268;22537;-51
2022/06/28 19:51:16;;;;;;;12.20;5.80;;;26.40;58.10;;;;;;220577;1268;22535;-52
2022/06/28 19:56:19;;;;;;;10.00;5.10;;;26.50;58.30;;;;;;220626;1268;22921;-53
2022/06/28 20:01:27;;;;;;;5.90;4.80;;;26.50;59.70;;;;;;220543;1268;23916;-51
2022/06/28 20:06:42;;;;;;;8.10;4.90;;;26.40;58.60;;;;;;220342;1268;22549;-51
2022/06/28 20:11:44;;;;;;;6.30;5.00;;;26.40;58.30;;;;;;220336;1268;26591;-52
2022/06/28 20:16:47;;;;;;;6.50;5.10;;;26.50;58.30;;;;;;220317;1265;24306;-51
2022/06/28 20:21:49;;;;;;;6.80;4.60;;;26.50;58.30;;;;;;220162;1268;22558;-53
2022/06/28 20:26:54;;;;;;;5.90;5.10;;;26.50;58.40;;;;;;220391;1268;25436;-49
2022/06/28 20:31:57;;;;;;;5.60;5.00;;;26.40;58.90;;;;;;220628;1268;22882;-52
2022/06/28 20:36:59;;;;;;;5.40;4.90;;;26.40;58.60;;;;;;220377;1268;24819;-48
2022/06/28 20:42:22;;;;;;;7.40;5.30;;;26.40;58.70;;;;;;220722;1268;24239;-50
2022/06/28 20:47:31;;;;;;;8.90;5.60;;;26.40;58.80;;;;;;220836;1268;24362;-49
2022/06/28 20:52:34;;;;;;;6.40;5.10;;;26.40;58.80;;;;;;220541;1268;22538;-53
2022/06/28 20:57:38;;;;;;;8.20;5.40;;;26.40;58.80;;;;;;220278;1268;24273;-50
2022/06/28 21:02:41;;;;;;;6.30;4.60;;;26.40;58.70;;;;;;220595;1268;22548;-54
2022/06/28 21:07:43;;;;;;;8.00;5.70;;;26.40;58.70;;;;;;220419;1268;23065;-52
2022/06/28 21:12:56;;;;;;;6.40;4.70;;;26.40;58.70;;;;;;220703;1268;24838;-53
2022/06/28 21:18:03;;;;;;;7.60;5.10;;;26.40;58.70;;;;;;220483;1268;22595;-52
2022/06/28 21:23:23;;;;;;;5.80;5.10;;;26.40;58.80;;;;;;220730;1268;23015;-48
2022/06/28 21:28:28;;;;;;;7.30;5.40;;;26.50;58.90;;;;;;219963;1268;22584;-52
2022/06/28 21:33:31;;;;;;;5.10;4.60;;;26.50;59.00;;;;;;220909;1265;24233;-52
2022/06/28 21:38:39;;;;;;;6.60;5.60;;;26.50;59.10;;;;;;220473;1268;22534;-52
2022/06/28 21:43:42;;;;;;;6.90;5.30;;;26.50;59.30;;;;;;220544;1268;25312;-53
2022/06/28 21:48:45;;;;;;;7.10;5.40;;;26.50;59.70;;;;;;220615;1268;24817;-51
2022/06/28 21:53:47;;;;;;;7.10;5.10;;;26.50;59.50;;;;;;220313;1265;24204;-52
2022/06/28 21:58:50;;;;;;;6.10;5.40;;;26.50;59.50;;;;;;220371;1268;22593;-50
2022/06/28 22:03:52;;;;;;;6.00;5.40;;;26.50;59.60;;;;;;220602;1268;22543;-50
2022/06/28 22:08:55;;;;;;;6.50;5.60;;;26.50;59.70;;;;;;220556;1268;22553;-53
2022/06/28 22:13:59;;;;;;;6.70;5.40;;;26.60;60.40;;;;;;220377;1268;24261;-49
2022/06/28 22:19:03;;;;;;;6.00;5.40;;;26.70;60.10;;;;;;220613;1268;22629;-51
2022/06/28 22:24:16;;;;;;;5.70;4.70;;;26.70;60.80;;;;;;220189;1268;22550;-52
2022/06/28 22:29:19;;;;;;;5.60;4.70;;;26.70;60.30;;;;;;220262;1268;24202;-55
2022/06/28 22:34:22;;;;;;;6.10;4.70;;;26.80;60.90;;;;;;220415;1265;25005;-52
2022/06/28 22:39:25;;;;;;;6.60;5.10;;;26.90;60.50;;;;;;220233;1268;24328;-52
2022/06/28 22:44:27;;;;;;;5.90;5.00;;;26.90;60.30;;;;;;219947;1268;22632;-51
2022/06/28 22:49:30;;;;;;;5.50;4.90;;;26.90;60.40;;;;;;220437;1268;22615;-52
2022/06/28 22:54:32;;;;;;;5.80;4.80;;;26.90;60.40;;;;;;220069;1268;22550;-50
2022/06/28 22:59:35;;;;;;;7.10;5.10;;;26.80;60.10;;;;;;220096;1268;24252;-52
2022/06/28 23:04:38;;;;;;;6.80;5.00;;;26.80;60.00;;;;;;220358;1265;23033;-51
2022/06/28 23:09:40;;;;;;;6.20;4.30;;;26.80;59.70;;;;;;220049;1268;22545;-51
2022/06/28 23:14:43;;;;;;;5.50;4.80;;;26.80;59.70;;;;;;220253;1268;24721;-51
2022/06/28 23:19:45;;;;;;;5.60;4.90;;;26.80;59.90;;;;;;220155;1268;24389;-53
2022/06/28 23:24:47;;;;;;;5.80;4.70;;;26.70;60.20;;;;;;220318;1268;24273;-50
2022/06/28 23:29:49;;;;;;;5.90;4.80;;;26.60;60.00;;;;;;220114;1267;22550;-54
2022/06/28 23:34:52;;;;;;;5.90;4.70;;;26.60;60.00;;;;;;220198;1268;22701;-52
2022/06/28 23:39:56;;;;;;;5.50;3.70;;;26.60;60.00;;;;;;220511;1268;24212;-53
2022/06/28 23:44:58;;;;;;;5.50;3.80;;;26.60;60.30;;;;;;220473;1268;23411;-53
2022/06/28 23:50:01;;;;;;;5.80;3.90;;;26.60;60.10;;;;;;220761;1268;25443;-54
2022/06/28 23:55:27;;;;;;;4.70;4.00;;;26.50;60.20;;;;;;220733;1268;22532;-50
